createdAt,value
2018-04-02T00:00:23.826Z,56.30
2018-04-02T00:02:51.450Z,56.40
2018-04-02T00:05:19.832Z,56.60
2018-04-02T00:07:48.250Z,56.60
2018-04-02T00:10:15.922Z,56.60
2018-04-02T00:12:43.635Z,57.00
2018-04-02T00:15:12.058Z,56.60
2018-04-02T00:17:39.711Z,56.60
2018-04-02T00:20:07.330Z,57.30
2018-04-02T00:22:35.031Z,57.10
2018-04-02T00:25:02.685Z,57.10
2018-04-02T00:27:30.485Z,57.00
2018-04-02T00:29:58.152Z,56.90
2018-04-02T00:32:25.899Z,56.90
2018-04-02T00:34:53.680Z,56.90
2018-04-02T00:37:21.455Z,56.70
2018-04-02T00:39:49.268Z,57.10
2018-04-02T00:42:16.915Z,57.10
2018-04-02T00:44:45.307Z,56.70
2018-04-02T00:47:13.743Z,56.70
2018-04-02T00:49:41.427Z,56.60
2018-04-02T00:52:09.042Z,56.80
2018-04-02T00:54:36.695Z,56.80
2018-04-02T00:57:04.335Z,56.70
2018-04-02T00:59:32.727Z,56.40
2018-04-02T01:02:00.382Z,56.40
2018-04-02T01:04:28.118Z,56.30
2018-04-02T01:06:55.729Z,56.10
2018-04-02T01:09:23.351Z,56.20
2018-04-02T01:11:51.770Z,55.90
2018-04-02T01:14:19.397Z,55.80
2018-04-02T01:16:47.088Z,56.10
2018-04-02T01:19:14.716Z,55.90
2018-04-02T01:21:43.099Z,56.10
2018-04-02T01:24:11.538Z,56.20
2018-04-02T01:26:39.158Z,56.10
2018-04-02T01:29:06.773Z,56.40
2018-04-02T01:31:34.456Z,56.20
2018-04-02T01:34:02.084Z,56.10
2018-04-02T01:36:29.750Z,56.10
2018-04-02T01:38:57.407Z,56.50
2018-04-02T01:41:25.025Z,56.80
2018-04-02T01:43:53.451Z,56.70
2018-04-02T01:46:21.080Z,56.70
2018-04-02T01:48:48.698Z,57.00
2018-04-02T01:51:16.357Z,56.80
2018-04-02T01:53:43.974Z,56.80
2018-04-02T01:56:11.612Z,56.50
2018-04-02T01:58:40.151Z,56.90
2018-04-02T02:01:07.816Z,56.90
2018-04-02T02:03:35.439Z,57.00
2018-04-02T02:06:08.843Z,57.30
2018-04-02T02:08:36.466Z,57.30
2018-04-02T02:11:04.846Z,57.50
2018-04-02T02:13:33.409Z,57.30
2018-04-02T02:16:01.048Z,57.20
2018-04-02T02:18:28.715Z,56.90
2018-04-02T02:20:56.422Z,56.80
2018-04-02T02:23:24.855Z,57.20
2018-04-02T02:25:52.528Z,57.10
2018-04-02T02:28:20.191Z,57.40
2018-04-02T02:30:47.813Z,57.60
2018-04-02T02:33:15.510Z,57.60
2018-04-02T02:35:43.131Z,57.80
2018-04-02T02:38:10.822Z,57.70
2018-04-02T02:40:38.515Z,57.50
2018-04-02T02:43:06.128Z,57.20
2018-04-02T02:45:33.783Z,57.30
2018-04-02T02:48:01.499Z,57.60
2018-04-02T02:50:29.120Z,58.00
2018-04-02T02:52:56.775Z,58.40
2018-04-02T02:55:24.435Z,58.00
2018-04-02T02:57:52.085Z,58.20
2018-04-02T03:00:19.782Z,58.60
2018-04-02T03:02:47.427Z,58.20
2018-04-02T03:05:15.050Z,58.00
2018-04-02T03:07:43.490Z,58.40
2018-04-02T03:10:11.114Z,58.30
2018-04-02T03:12:38.746Z,58.70
2018-04-02T03:15:06.492Z,59.00
2018-04-02T03:17:34.123Z,59.50
2018-04-02T03:20:01.743Z,58.90
2018-04-02T03:22:30.200Z,58.90
2018-04-02T03:24:57.828Z,58.70
2018-04-02T03:27:25.456Z,58.90
2018-04-02T03:29:53.153Z,58.40
2018-04-02T03:32:20.770Z,58.70
2018-04-02T03:34:49.150Z,58.50
2018-04-02T03:37:17.559Z,58.20
2018-04-02T03:39:45.249Z,58.10
2018-04-02T03:42:12.907Z,58.10
2018-04-02T03:44:40.522Z,58.40
2018-04-02T03:47:08.915Z,58.00
2018-04-02T03:49:36.572Z,58.00
2018-04-02T03:52:05.006Z,58.20
2018-04-02T03:54:32.756Z,58.20
2018-04-02T03:57:00.424Z,58.70
2018-04-02T03:59:28.057Z,58.50
2018-04-02T04:01:55.727Z,58.30
2018-04-02T04:04:23.378Z,58.50
2018-04-02T04:06:50.996Z,58.30
2018-04-02T04:09:18.663Z,58.30
2018-04-02T04:11:46.305Z,58.50
2018-04-02T04:14:13.950Z,58.90
2018-04-02T04:16:41.612Z,59.00
2018-04-02T04:19:09.308Z,59.10
2018-04-02T04:21:36.972Z,58.90
2018-04-02T04:24:04.573Z,58.60
2018-04-02T04:26:32.279Z,58.80
2018-04-02T04:28:59.927Z,59.00
2018-04-02T04:31:27.555Z,58.60
2018-04-02T04:33:55.227Z,58.80
2018-04-02T04:36:22.927Z,58.50
2018-04-02T04:38:50.606Z,58.40
2018-04-02T04:41:18.222Z,58.60
2018-04-02T04:43:45.846Z,58.50
2018-04-02T04:46:14.279Z,58.80
2018-04-02T04:48:41.894Z,58.70
2018-04-02T04:51:10.294Z,59.00
2018-04-02T04:53:37.946Z,59.60
2018-04-02T04:56:05.563Z,58.80
2018-04-02T04:58:33.255Z,58.50
2018-04-02T05:01:01.789Z,58.50
2018-04-02T05:03:29.412Z,58.40
2018-04-02T05:05:57.032Z,58.70
2018-04-02T05:08:24.695Z,58.70
2018-04-02T05:10:52.314Z,58.90
2018-04-02T05:13:19.929Z,58.60
2018-04-02T05:15:47.571Z,58.60
2018-04-02T05:18:15.245Z,58.70
2018-04-02T05:20:42.939Z,58.90
2018-04-02T05:23:10.579Z,58.90
2018-04-02T05:25:38.198Z,58.90
2018-04-02T05:28:05.987Z,59.00
2018-04-02T05:30:33.603Z,58.60
2018-04-02T05:33:01.223Z,58.40
2018-04-02T05:35:28.879Z,58.30
2018-04-02T05:37:56.500Z,57.80
2018-04-02T05:40:24.161Z,57.40
2018-04-02T05:42:51.786Z,56.70
2018-04-02T05:45:19.542Z,56.00
2018-04-02T05:47:47.277Z,55.70
2018-04-02T05:50:14.902Z,55.20
2018-04-02T05:52:42.571Z,54.80
2018-04-02T05:55:10.185Z,54.50
2018-04-02T05:57:38.572Z,53.90
2018-04-02T06:00:06.227Z,53.90
2018-04-02T06:02:33.853Z,53.20
2018-04-02T06:05:01.624Z,53.40
2018-04-02T06:07:29.251Z,52.70
2018-04-02T06:09:56.880Z,52.70
2018-04-02T06:12:24.539Z,52.30
2018-04-02T06:14:52.169Z,52.10
2018-04-02T06:17:19.822Z,51.20
2018-04-02T06:19:47.443Z,51.20
2018-04-02T06:22:15.842Z,50.00
2018-04-02T06:24:43.554Z,50.00
2018-04-02T06:27:11.172Z,49.90
2018-04-02T06:29:38.796Z,49.50
2018-04-02T06:32:06.454Z,49.90
2018-04-02T06:34:34.104Z,51.00
2018-04-02T06:37:01.803Z,50.20
2018-04-02T06:39:29.463Z,49.70
2018-04-02T06:41:57.867Z,51.10
2018-04-02T06:44:25.530Z,51.10
2018-04-02T06:46:53.636Z,51.80
2018-04-02T06:49:22.071Z,53.10
2018-04-02T06:51:49.686Z,53.00
2018-04-02T06:54:17.359Z,53.90
2018-04-02T06:56:44.971Z,53.70
2018-04-02T06:59:12.594Z,54.00
2018-04-02T07:01:41.058Z,54.10
2018-04-02T07:04:08.676Z,54.10
2018-04-02T07:06:36.297Z,54.30
2018-04-02T07:09:03.983Z,54.60
2018-04-02T07:11:31.610Z,54.50
2018-04-02T07:13:59.239Z,54.80
2018-04-02T07:16:26.911Z,54.80
2018-04-02T07:18:54.527Z,55.40
2018-04-02T07:21:22.159Z,55.50
2018-04-02T07:23:49.817Z,55.40
2018-04-02T07:26:17.449Z,55.60
2018-04-02T07:28:45.092Z,55.70
2018-04-02T07:31:12.721Z,55.70
2018-04-02T07:33:41.319Z,55.20
2018-04-02T07:36:09.751Z,55.20
2018-04-02T07:38:38.134Z,55.10
2018-04-02T07:41:05.780Z,55.00
2018-04-02T07:43:33.447Z,55.00
2018-04-02T07:46:01.070Z,55.30
2018-04-02T07:48:28.766Z,54.70
2018-04-02T07:50:56.423Z,54.70
2018-04-02T07:53:24.091Z,54.90
2018-04-02T07:55:51.714Z,54.60
2018-04-02T07:58:20.159Z,54.50
2018-04-02T08:00:47.898Z,54.50
2018-04-02T08:03:15.526Z,54.20
2018-04-02T08:05:43.149Z,54.30
2018-04-02T08:08:10.987Z,54.60
2018-04-02T08:10:38.753Z,54.20
2018-04-02T08:13:06.522Z,54.40
2018-04-02T08:15:34.797Z,55.00
2018-04-02T08:18:03.590Z,54.10
2018-04-02T08:20:31.777Z,54.10
2018-04-02T08:23:00.955Z,52.90
2018-04-02T08:25:29.028Z,53.00
2018-04-02T08:27:58.433Z,53.30
2018-04-02T08:30:27.324Z,53.20
2018-04-02T08:32:56.029Z,51.90
2018-04-02T08:35:24.489Z,51.90
2018-04-02T08:37:52.459Z,51.70
2018-04-02T08:40:20.429Z,51.50
2018-04-02T08:42:48.499Z,51.50
2018-04-02T08:45:16.741Z,51.00
2018-04-02T08:47:44.439Z,50.70
2018-04-02T08:50:12.106Z,50.80
2018-04-02T08:52:39.794Z,50.20
2018-04-02T08:55:07.512Z,50.50
2018-04-02T08:57:35.192Z,50.80
2018-04-02T09:00:02.885Z,50.80
2018-04-02T09:02:31.292Z,50.80
2018-04-02T09:04:59.010Z,50.90
2018-04-02T09:07:26.664Z,50.60
2018-04-02T09:09:54.278Z,50.30
2018-04-02T09:12:22.707Z,49.70
2018-04-02T09:14:50.326Z,49.60
2018-04-02T09:17:17.979Z,49.60
2018-04-02T09:19:46.358Z,49.60
2018-04-02T09:22:14.737Z,49.10
2018-04-02T09:24:43.163Z,49.10
2018-04-02T09:27:10.787Z,49.00
2018-04-02T09:29:39.185Z,49.10
2018-04-02T09:32:06.842Z,49.00
2018-04-02T09:34:34.464Z,49.20
2018-04-02T09:37:02.287Z,48.60
2018-04-02T09:39:29.957Z,49.10
2018-04-02T09:41:57.589Z,48.90
2018-04-02T09:44:25.254Z,48.60
2018-04-02T09:46:52.902Z,48.70
2018-04-02T09:49:21.348Z,48.60
2018-04-02T09:51:49.111Z,48.60
2018-04-02T09:54:16.742Z,48.50
2018-04-02T09:56:44.428Z,48.90
2018-04-02T09:59:13.164Z,48.20
2018-04-02T10:01:40.803Z,48.10
2018-04-02T10:04:08.516Z,47.80
2018-04-02T10:06:36.193Z,48.80
2018-04-02T10:09:03.828Z,48.00
2018-04-02T10:11:31.469Z,48.50
2018-04-02T10:13:59.994Z,47.00
2018-04-02T10:16:27.662Z,47.00
2018-04-02T10:18:55.423Z,47.10
2018-04-02T10:21:23.210Z,47.30
2018-04-02T10:23:51.653Z,47.10
2018-04-02T10:26:19.317Z,47.60
2018-04-02T10:28:46.957Z,47.30
2018-04-02T10:31:15.612Z,47.40
2018-04-02T10:33:43.232Z,47.50
2018-04-02T10:36:10.966Z,47.30
2018-04-02T10:38:38.641Z,47.70
2018-04-02T10:41:06.266Z,47.60
2018-04-02T10:43:33.923Z,48.00
2018-04-02T10:46:04.021Z,48.10
2018-04-02T10:48:33.330Z,48.50
2018-04-02T10:51:00.969Z,48.20
2018-04-02T10:53:28.623Z,48.20
2018-04-02T10:55:56.262Z,47.70
2018-04-02T10:58:23.912Z,46.90
2018-04-02T11:00:52.363Z,46.60
2018-04-02T11:03:20.102Z,46.50
2018-04-02T11:05:47.829Z,47.80
2018-04-02T11:08:16.249Z,46.30
2018-04-02T11:10:43.867Z,46.30
2018-04-02T11:13:12.251Z,45.50
2018-04-02T11:15:39.923Z,45.50
2018-04-02T11:18:07.547Z,46.00
2018-04-02T11:20:35.203Z,46.20
2018-04-02T11:23:03.602Z,46.50
2018-04-02T11:25:31.989Z,45.20
2018-04-02T11:28:00.443Z,44.80
2018-04-02T11:30:28.082Z,44.80
2018-04-02T11:32:55.767Z,44.00
2018-04-02T11:35:23.426Z,44.00
2018-04-02T11:37:51.056Z,45.50
2018-04-02T11:40:18.716Z,45.00
2018-04-02T11:42:46.338Z,44.40
2018-04-02T11:45:14.727Z,45.90
2018-04-02T11:47:43.154Z,46.30
2018-04-02T11:50:10.792Z,46.30
2018-04-02T11:52:38.508Z,46.00
2018-04-02T11:55:07.079Z,44.50
2018-04-02T11:57:34.697Z,44.40
2018-04-02T12:00:02.404Z,44.40
2018-04-02T12:02:30.346Z,44.40
2018-04-02T12:04:57.984Z,44.20
2018-04-02T12:07:25.605Z,44.40
2018-04-02T12:09:54.157Z,43.10
2018-04-02T12:12:21.830Z,43.00
2018-04-02T12:14:49.505Z,42.10
2018-04-02T12:17:17.211Z,42.10
2018-04-02T12:19:44.830Z,41.40
2018-04-02T12:22:12.481Z,41.40
2018-04-02T12:24:40.124Z,41.20
2018-04-02T12:27:07.842Z,41.40
2018-04-02T12:29:36.230Z,40.30
2018-04-02T12:32:04.645Z,40.60
2018-04-02T12:34:32.305Z,40.60
2018-04-02T12:36:59.947Z,40.50
2018-04-02T12:39:27.591Z,40.30
2018-04-02T12:41:56.006Z,39.90
2018-04-02T12:44:23.663Z,39.90
2018-04-02T12:46:51.540Z,39.50
2018-04-02T12:49:19.157Z,40.40
2018-04-02T12:51:47.551Z,41.20
2018-04-02T12:54:15.271Z,41.20
2018-04-02T12:56:42.914Z,42.60
2018-04-02T12:59:10.622Z,42.80
2018-04-02T13:01:39.164Z,42.10
2018-04-02T13:04:06.790Z,42.00
2018-04-02T13:06:34.420Z,42.40
2018-04-02T13:09:02.886Z,40.90
2018-04-02T13:11:30.574Z,40.90
2018-04-02T13:13:58.958Z,41.60
2018-04-02T13:16:27.418Z,41.20
2018-04-02T13:18:55.090Z,41.10
2018-04-02T13:21:23.563Z,41.50
2018-04-02T13:23:51.319Z,41.50
2018-04-02T13:26:18.934Z,41.00
2018-04-02T13:28:46.619Z,41.60
2018-04-02T13:31:14.287Z,41.00
2018-04-02T13:33:41.948Z,41.70
2018-04-02T13:36:09.570Z,41.70
2018-04-02T13:38:37.296Z,40.00
2018-04-02T13:41:05.032Z,39.60
2018-04-02T13:43:32.646Z,39.90
2018-04-02T13:46:01.065Z,39.50
2018-04-02T13:48:28.720Z,39.50
2018-04-02T13:50:56.362Z,38.40
2018-04-02T13:53:24.789Z,39.00
2018-04-02T13:55:52.442Z,38.90
2018-04-02T13:58:20.147Z,39.00
2018-04-02T14:00:48.536Z,39.60
2018-04-02T14:03:16.938Z,40.50
2018-04-02T14:05:44.601Z,40.40
2018-04-02T14:08:12.316Z,40.30
2018-04-02T14:10:40.057Z,40.50
2018-04-02T14:13:09.370Z,39.90
2018-04-02T14:15:37.032Z,39.90
2018-04-02T14:18:04.800Z,40.50
2018-04-02T14:20:32.477Z,39.10
2018-04-02T14:23:00.103Z,40.00
2018-04-02T14:25:27.738Z,40.10
2018-04-02T14:27:55.431Z,40.00
2018-04-02T14:30:23.095Z,39.90
2018-04-02T14:32:50.729Z,40.00
2018-04-02T14:35:18.419Z,39.40
2018-04-02T14:37:46.056Z,39.10
2018-04-02T14:40:13.723Z,40.10
2018-04-02T14:42:41.394Z,39.50
2018-04-02T14:45:09.018Z,39.10
2018-04-02T14:47:37.450Z,39.40
2018-04-02T14:50:05.105Z,39.40
2018-04-02T14:52:32.725Z,39.50
2018-04-02T14:55:01.139Z,39.00
2018-04-02T14:57:28.827Z,38.90
2018-04-02T14:59:56.456Z,38.30
2018-04-02T15:02:24.081Z,39.10
2018-04-02T15:04:52.634Z,38.70
2018-04-02T15:07:20.304Z,38.70
2018-04-02T15:09:47.964Z,38.80
2018-04-02T15:12:15.644Z,39.80
2018-04-02T15:14:43.275Z,38.90
2018-04-02T15:17:10.898Z,39.30
2018-04-02T15:19:38.559Z,38.70
2018-04-02T15:22:06.198Z,38.90
2018-04-02T15:24:34.633Z,38.80
2018-04-02T15:27:02.550Z,38.70
2018-04-02T15:29:30.947Z,39.00
2018-04-02T15:31:58.583Z,39.00
2018-04-02T15:34:26.246Z,39.10
2018-04-02T15:36:54.687Z,39.20
2018-04-02T15:39:22.494Z,39.20
2018-04-02T15:41:50.891Z,39.00
2018-04-02T15:44:19.340Z,39.10
2018-04-02T15:46:47.016Z,39.10
2018-04-02T15:49:14.647Z,39.70
2018-04-02T15:51:42.330Z,39.10
2018-04-02T15:54:09.967Z,38.50
2018-04-02T15:56:37.591Z,39.10
2018-04-02T15:59:05.256Z,39.50
2018-04-02T16:01:32.891Z,39.10
2018-04-02T16:04:01.430Z,39.40
2018-04-02T16:06:29.114Z,39.40
2018-04-02T16:08:56.869Z,39.60
2018-04-02T16:11:24.511Z,39.40
2018-04-02T16:13:52.290Z,39.70
2018-04-02T16:16:19.946Z,39.90
2018-04-02T16:18:48.489Z,40.10
2018-04-02T16:21:17.011Z,39.40
2018-04-02T16:23:44.699Z,39.50
2018-04-02T16:26:12.325Z,39.50
2018-04-02T16:28:39.978Z,39.50
2018-04-02T16:31:07.661Z,39.50
2018-04-02T16:33:35.312Z,39.40
2018-04-02T16:36:03.016Z,39.70
2018-04-02T16:38:30.654Z,39.40
2018-04-02T16:40:58.279Z,39.70
2018-04-02T16:43:25.955Z,39.70
2018-04-02T16:45:53.632Z,39.80
2018-04-02T16:48:21.301Z,40.00
2018-04-02T16:50:48.971Z,40.00
2018-04-02T16:53:16.612Z,40.10
2018-04-02T16:55:44.328Z,39.70
2018-04-02T16:58:11.996Z,39.20
2018-04-02T17:00:40.451Z,39.30
2018-04-02T17:03:08.111Z,39.20
2018-04-02T17:05:35.743Z,40.10
2018-04-02T17:08:03.519Z,39.20
2018-04-02T17:10:31.142Z,39.60
2018-04-02T17:12:59.572Z,39.50
2018-04-02T17:15:27.230Z,39.50
2018-04-02T17:17:54.907Z,39.40
2018-04-02T17:20:22.538Z,39.70
2018-04-02T17:22:50.239Z,39.70
2018-04-02T17:25:17.976Z,39.60
2018-04-02T17:27:45.603Z,39.60
2018-04-02T17:30:13.278Z,39.50
2018-04-02T17:32:40.990Z,39.10
2018-04-02T17:35:08.661Z,38.70
2018-04-02T17:37:37.075Z,39.10
2018-04-02T17:40:04.803Z,39.50
2018-04-02T17:42:33.491Z,39.80
2018-04-02T17:45:03.155Z,40.20
2018-04-02T17:47:30.851Z,40.10
2018-04-02T17:49:58.536Z,40.80
2018-04-02T17:52:26.964Z,40.30
2018-04-02T17:54:54.628Z,40.30
2018-04-02T17:57:22.285Z,40.60
2018-04-02T17:59:49.987Z,40.60
2018-04-02T18:02:17.611Z,40.70
2018-04-02T18:04:45.288Z,40.90
2018-04-02T18:07:12.949Z,40.90
2018-04-02T18:09:40.580Z,41.40
2018-04-02T18:12:08.225Z,41.50
2018-04-02T18:14:36.671Z,41.70
2018-04-02T18:17:04.344Z,41.60
2018-04-02T18:19:32.007Z,41.60
2018-04-02T18:21:59.679Z,41.60
2018-04-02T18:24:28.082Z,42.40
2018-04-02T18:26:55.706Z,41.70
2018-04-02T18:29:24.870Z,42.30
2018-04-02T18:31:52.492Z,42.30
2018-04-02T18:34:20.940Z,42.30
2018-04-02T18:36:48.595Z,42.30
2018-04-02T18:39:16.239Z,42.50
2018-04-02T18:41:43.896Z,42.40
2018-04-02T18:44:11.523Z,42.80
2018-04-02T18:46:39.939Z,42.70
2018-04-02T18:49:07.602Z,42.70
2018-04-02T18:51:36.476Z,43.00
2018-04-02T18:54:04.337Z,43.10
2018-04-02T18:56:32.663Z,43.60
2018-04-02T18:59:00.598Z,43.50
2018-04-02T19:01:28.222Z,43.70
2018-04-02T19:03:56.887Z,43.50
2018-04-02T19:06:24.521Z,43.50
2018-04-02T19:08:52.267Z,44.30
2018-04-02T19:11:19.981Z,43.90
2018-04-02T19:13:47.617Z,44.30
2018-04-02T19:16:15.302Z,44.20
2018-04-02T19:18:43.367Z,44.50
2018-04-02T19:21:11.010Z,46.10
2018-04-02T19:23:38.641Z,46.40
2018-04-02T19:26:06.357Z,46.70
2018-04-02T19:28:34.790Z,47.30
2018-04-02T19:31:02.454Z,47.40
2018-04-02T19:33:30.090Z,47.20
2018-04-02T19:35:58.479Z,47.90
2018-04-02T19:38:26.946Z,47.50
2018-04-02T19:40:55.354Z,48.00
2018-04-02T19:43:23.022Z,47.30
2018-04-02T19:45:50.682Z,47.50
2018-04-02T19:48:18.302Z,47.20
2018-04-02T19:50:45.967Z,47.30
2018-04-02T19:53:13.635Z,47.10
2018-04-02T19:55:41.388Z,48.10
2018-04-02T19:58:09.779Z,49.30
2018-04-02T20:00:38.319Z,49.20
2018-04-02T20:03:05.939Z,49.20
2018-04-02T20:05:34.391Z,49.70
2018-04-02T20:08:02.794Z,50.20
2018-04-02T20:10:30.448Z,50.30
2018-04-02T20:12:58.885Z,49.90
2018-04-02T20:15:26.548Z,49.80
2018-04-02T20:17:55.201Z,50.50
2018-04-02T20:20:23.304Z,51.10
2018-04-02T20:22:50.930Z,50.90
2018-04-02T20:25:18.559Z,51.10
2018-04-02T20:27:46.223Z,51.10
2018-04-02T20:30:13.839Z,51.30
2018-04-02T20:32:42.835Z,52.90
2018-04-02T20:35:10.935Z,52.90
2018-04-02T20:37:38.591Z,53.20
2018-04-02T20:40:06.412Z,52.90
2018-04-02T20:42:34.055Z,53.40
2018-04-02T20:45:02.508Z,54.20
2018-04-02T20:47:30.134Z,54.20
2018-04-02T20:49:57.770Z,54.00
2018-04-02T20:52:26.219Z,51.90
2018-04-02T20:54:53.982Z,51.90
2018-04-02T20:57:21.619Z,52.00
2018-04-02T20:59:49.239Z,50.90
2018-04-02T21:02:17.779Z,51.10
2018-04-02T21:04:45.420Z,51.10
2018-04-02T21:07:13.039Z,51.90
2018-04-02T21:09:41.577Z,52.70
2018-04-02T21:12:09.254Z,52.60
2018-04-02T21:14:36.880Z,52.60
2018-04-02T21:17:04.659Z,53.10
2018-04-02T21:19:32.299Z,53.10
2018-04-02T21:21:59.994Z,53.10
2018-04-02T21:24:27.661Z,53.20
2018-04-02T21:26:56.079Z,54.10
2018-04-02T21:29:24.515Z,54.30
2018-04-02T21:31:52.148Z,54.30
2018-04-02T21:34:19.771Z,54.80
2018-04-02T21:36:48.313Z,55.40
2018-04-02T21:39:15.931Z,55.40
2018-04-02T21:41:44.386Z,56.30
2018-04-02T21:44:12.008Z,56.30
2018-04-02T21:46:39.660Z,55.90
2018-04-02T21:49:07.412Z,55.00
2018-04-02T21:51:35.175Z,55.30
2018-04-02T21:54:02.817Z,54.50
2018-04-02T21:56:31.335Z,53.60
2018-04-02T21:58:59.013Z,53.50
2018-04-02T22:01:26.639Z,53.50
2018-04-02T22:03:54.314Z,53.40
2018-04-02T22:06:33.912Z,53.00
2018-04-02T22:09:01.803Z,52.70
2018-04-02T22:11:29.455Z,52.70
2018-04-02T22:13:57.875Z,52.50
2018-04-02T22:16:25.522Z,51.90
2018-04-02T22:18:53.142Z,51.80
2018-04-02T22:21:20.806Z,51.40
2018-04-02T22:23:48.472Z,51.20
2018-04-02T22:26:16.093Z,51.00
2018-04-02T22:28:43.710Z,51.50
2018-04-02T22:31:12.123Z,51.10
2018-04-02T22:33:39.755Z,51.00
2018-04-02T22:36:08.207Z,51.20
2018-04-02T22:38:35.826Z,51.10
2018-04-02T22:41:03.479Z,51.00
2018-04-02T22:43:31.739Z,50.60
2018-04-02T22:46:00.123Z,50.70
2018-04-02T22:48:28.171Z,50.60
2018-04-02T22:50:55.896Z,50.50
2018-04-02T22:53:23.576Z,50.60
2018-04-02T22:55:52.468Z,50.20
2018-04-02T22:58:20.142Z,50.10
2018-04-02T23:00:48.522Z,50.00
2018-04-02T23:03:17.838Z,50.40
2018-04-02T23:05:46.335Z,50.90
2018-04-02T23:08:14.718Z,49.90
2018-04-02T23:10:42.379Z,49.90
2018-04-02T23:13:10.909Z,49.30
2018-04-02T23:15:38.557Z,49.30
2018-04-02T23:18:06.200Z,49.20
2018-04-02T23:20:33.854Z,48.60
2018-04-02T23:23:01.550Z,48.70
2018-04-02T23:25:29.162Z,48.50
2018-04-02T23:27:57.574Z,48.30
2018-04-02T23:30:25.254Z,48.30
2018-04-02T23:32:52.917Z,47.40
2018-04-02T23:35:20.566Z,47.00
2018-04-02T23:37:48.216Z,47.10
2018-04-02T23:40:15.859Z,46.80
2018-04-02T23:42:43.543Z,47.80
2018-04-02T23:45:11.158Z,47.00
2018-04-02T23:47:38.780Z,47.00
2018-04-02T23:50:06.448Z,46.70
2018-04-02T23:52:34.112Z,46.70
2018-04-02T23:55:01.726Z,46.80
2018-04-02T23:57:30.165Z,46.70
2018-04-02T23:59:57.823Z,46.70
